sensor_id;sensor_type;location;lat;lon;timestamp;pressure;altitude;pressure_sealevel;temperature;humidity
27334;BME280;14817;57.104;-2.094;2023-06-10T00:01:41;101038.72;;;9.74;100.00
27334;BME280;14817;57.104;-2.094;2023-06-10T00:04:08;101039.53;;;9.65;100.00
27334;BME280;14817;57.104;-2.094;2023-06-10T00:06:35;101037.13;;;9.62;100.00
27334;BME280;14817;57.104;-2.094;2023-06-10T00:09:03;101028.13;;;9.63;100.00
27334;BME280;14817;57.104;-2.094;2023-06-10T00:11:37;101037.81;;;9.54;100.00
27334;BME280;14817;57.104;-2.094;2023-06-10T00:14:04;101035.25;;;9.53;100.00
27334;BME280;14817;57.104;-2.094;2023-06-10T00:16:31;101036.25;;;9.52;100.00
27334;BME280;14817;57.104;-2.094;2023-06-10T00:19:02;101039.75;;;9.52;100.00
27334;BME280;14817;57.104;-2.094;2023-06-10T00:21:32;101036.09;;;9.53;100.00
27334;BME280;14817;57.104;-2.094;2023-06-10T00:24:07;101024.53;;;9.43;100.00
27334;BME280;14817;57.104;-2.094;2023-06-10T00:26:39;101034.09;;;9.46;100.00
27334;BME280;14817;57.104;-2.094;2023-06-10T00:29:07;101029.88;;;9.43;100.00
27334;BME280;14817;57.104;-2.094;2023-06-10T00:31:36;101035.91;;;9.45;100.00
27334;BME280;14817;57.104;-2.094;2023-06-10T00:34:06;101028.44;;;9.39;100.00
27334;BME280;14817;57.104;-2.094;2023-06-10T00:36:33;101040.69;;;9.42;100.00
27334;BME280;14817;57.104;-2.094;2023-06-10T00:39:02;101041.09;;;9.37;100.00
27334;BME280;14817;57.104;-2.094;2023-06-10T00:41:31;101038.84;;;9.42;100.00
27334;BME280;14817;57.104;-2.094;2023-06-10T00:43:58;101031.13;;;9.39;100.00
27334;BME280;14817;57.104;-2.094;2023-06-10T00:46:25;101033.94;;;9.47;100.00
27334;BME280;14817;57.104;-2.094;2023-06-10T00:48:55;101032.16;;;9.48;100.00
27334;BME280;14817;57.104;-2.094;2023-06-10T00:51:22;101027.81;;;9.56;100.00
27334;BME280;14817;57.104;-2.094;2023-06-10T00:53:49;101026.13;;;9.55;100.00
27334;BME280;14817;57.104;-2.094;2023-06-10T00:56:16;101027.53;;;9.59;100.00
27334;BME280;14817;57.104;-2.094;2023-06-10T00:58:43;101018.81;;;9.57;100.00
27334;BME280;14817;57.104;-2.094;2023-06-10T01:01:11;101016.97;;;9.58;100.00
27334;BME280;14817;57.104;-2.094;2023-06-10T01:03:39;101014.34;;;9.68;100.00
27334;BME280;14817;57.104;-2.094;2023-06-10T01:08:52;101012.81;;;9.75;100.00
27334;BME280;14817;57.104;-2.094;2023-06-10T01:11:29;101016.38;;;9.75;100.00
27334;BME280;14817;57.104;-2.094;2023-06-10T01:14:00;101014.66;;;9.74;100.00
27334;BME280;14817;57.104;-2.094;2023-06-10T01:16:28;101011.88;;;9.86;100.00
27334;BME280;14817;57.104;-2.094;2023-06-10T01:18:55;101022.19;;;9.90;100.00
27334;BME280;14817;57.104;-2.094;2023-06-10T01:21:24;101013.28;;;9.90;100.00
27334;BME280;14817;57.104;-2.094;2023-06-10T01:23:53;101021.78;;;9.95;100.00
27334;BME280;14817;57.104;-2.094;2023-06-10T01:26:25;101016.72;;;10.01;100.00
27334;BME280;14817;57.104;-2.094;2023-06-10T01:28:59;101018.41;;;10.02;100.00
27334;BME280;14817;57.104;-2.094;2023-06-10T01:31:38;101018.03;;;10.07;100.00
27334;BME280;14817;57.104;-2.094;2023-06-10T01:34:10;101015.91;;;10.11;100.00
27334;BME280;14817;57.104;-2.094;2023-06-10T01:36:40;101015.78;;;10.12;100.00
27334;BME280;14817;57.104;-2.094;2023-06-10T01:39:08;101024.94;;;10.10;100.00
27334;BME280;14817;57.104;-2.094;2023-06-10T01:41:37;101016.19;;;10.08;100.00
27334;BME280;14817;57.104;-2.094;2023-06-10T01:44:05;101019.69;;;10.08;100.00
27334;BME280;14817;57.104;-2.094;2023-06-10T01:46:31;101020.53;;;10.09;100.00
27334;BME280;14817;57.104;-2.094;2023-06-10T01:48:58;101027.44;;;10.11;100.00
27334;BME280;14817;57.104;-2.094;2023-06-10T01:51:25;101019.88;;;10.16;100.00
27334;BME280;14817;57.104;-2.094;2023-06-10T01:53:52;101012.81;;;10.15;100.00
27334;BME280;14817;57.104;-2.094;2023-06-10T01:56:19;101016.59;;;10.13;100.00
27334;BME280;14817;57.104;-2.094;2023-06-10T01:58:47;101013.69;;;10.16;100.00
27334;BME280;14817;57.104;-2.094;2023-06-10T02:01:14;101022.81;;;10.13;100.00
27334;BME280;14817;57.104;-2.094;2023-06-10T02:03:41;101027.75;;;10.18;100.00
27334;BME280;14817;57.104;-2.094;2023-06-10T02:06:08;101023.66;;;10.14;100.00
27334;BME280;14817;57.104;-2.094;2023-06-10T02:08:35;101022.50;;;10.07;100.00
27334;BME280;14817;57.104;-2.094;2023-06-10T02:11:02;101022.09;;;10.11;100.00
27334;BME280;14817;57.104;-2.094;2023-06-10T02:13:29;101018.88;;;10.08;100.00
27334;BME280;14817;57.104;-2.094;2023-06-10T02:15:56;101016.19;;;10.08;100.00
27334;BME280;14817;57.104;-2.094;2023-06-10T02:18:28;101016.19;;;10.08;100.00
27334;BME280;14817;57.104;-2.094;2023-06-10T02:20:55;101024.75;;;10.11;100.00
27334;BME280;14817;57.104;-2.094;2023-06-10T02:23:21;101023.09;;;10.10;100.00
27334;BME280;14817;57.104;-2.094;2023-06-10T02:25:48;101027.16;;;10.05;100.00
27334;BME280;14817;57.104;-2.094;2023-06-10T02:28:17;101025.88;;;10.09;100.00
27334;BME280;14817;57.104;-2.094;2023-06-10T02:30:44;101023.94;;;10.11;100.00
27334;BME280;14817;57.104;-2.094;2023-06-10T02:33:11;101032.25;;;10.08;100.00
27334;BME280;14817;57.104;-2.094;2023-06-10T02:35:40;101024.63;;;10.13;100.00
27334;BME280;14817;57.104;-2.094;2023-06-10T02:38:07;101021.28;;;10.20;100.00
27334;BME280;14817;57.104;-2.094;2023-06-10T02:40:34;101025.34;;;10.15;100.00
27334;BME280;14817;57.104;-2.094;2023-06-10T02:43:01;101022.13;;;10.21;100.00
27334;BME280;14817;57.104;-2.094;2023-06-10T02:45:28;101032.41;;;10.16;100.00
27334;BME280;14817;57.104;-2.094;2023-06-10T02:47:57;101020.69;;;10.17;100.00
27334;BME280;14817;57.104;-2.094;2023-06-10T02:50:24;101022.97;;;10.12;100.00
27334;BME280;14817;57.104;-2.094;2023-06-10T02:53:06;101017.31;;;10.15;100.00
27334;BME280;14817;57.104;-2.094;2023-06-10T02:55:34;101024.50;;;10.14;100.00
27334;BME280;14817;57.104;-2.094;2023-06-10T02:58:05;101022.41;;;10.18;100.00
27334;BME280;14817;57.104;-2.094;2023-06-10T03:00:32;101026.63;;;10.20;100.00
27334;BME280;14817;57.104;-2.094;2023-06-10T03:03:00;101021.84;;;10.24;100.00
27334;BME280;14817;57.104;-2.094;2023-06-10T03:05:33;101021.84;;;10.24;100.00
27334;BME280;14817;57.104;-2.094;2023-06-10T03:08:03;101018.75;;;10.19;100.00
27334;BME280;14817;57.104;-2.094;2023-06-10T03:10:32;101015.50;;;10.25;100.00
27334;BME280;14817;57.104;-2.094;2023-06-10T03:13:01;101018.91;;;10.27;100.00
27334;BME280;14817;57.104;-2.094;2023-06-10T03:15:27;101015.22;;;10.18;100.00
27334;BME280;14817;57.104;-2.094;2023-06-10T03:17:55;101014.63;;;10.15;100.00
27334;BME280;14817;57.104;-2.094;2023-06-10T03:20:22;101010.53;;;10.11;100.00
27334;BME280;14817;57.104;-2.094;2023-06-10T03:22:50;101008.59;;;10.13;100.00
27334;BME280;14817;57.104;-2.094;2023-06-10T03:25:18;101008.59;;;10.13;100.00
27334;BME280;14817;57.104;-2.094;2023-06-10T03:27:50;100997.31;;;10.19;100.00
27334;BME280;14817;57.104;-2.094;2023-06-10T03:30:18;100998.03;;;10.21;100.00
27334;BME280;14817;57.104;-2.094;2023-06-10T03:32:46;100995.34;;;10.21;100.00
27334;BME280;14817;57.104;-2.094;2023-06-10T03:35:16;100992.69;;;10.21;100.00
27334;BME280;14817;57.104;-2.094;2023-06-10T03:37:44;100986.19;;;10.14;100.00
27334;BME280;14817;57.104;-2.094;2023-06-10T03:40:11;100994.94;;;10.16;100.00
27334;BME280;14817;57.104;-2.094;2023-06-10T03:42:41;100991.41;;;10.15;100.00
27334;BME280;14817;57.104;-2.094;2023-06-10T03:45:09;101000.28;;;10.16;100.00
27334;BME280;14817;57.104;-2.094;2023-06-10T03:47:37;100991.97;;;10.19;100.00
27334;BME280;14817;57.104;-2.094;2023-06-10T03:50:08;100992.38;;;10.24;100.00
27334;BME280;14817;57.104;-2.094;2023-06-10T03:52:37;100997.91;;;10.22;100.00
27334;BME280;14817;57.104;-2.094;2023-06-10T03:55:05;100991.84;;;10.20;100.00
27334;BME280;14817;57.104;-2.094;2023-06-10T03:57:33;101001.72;;;10.20;100.00
27334;BME280;14817;57.104;-2.094;2023-06-10T04:00:00;101002.41;;;10.22;100.00
27334;BME280;14817;57.104;-2.094;2023-06-10T04:02:28;100995.56;;;10.29;100.00
27334;BME280;14817;57.104;-2.094;2023-06-10T04:04:55;100999.66;;;10.33;100.00
27334;BME280;14817;57.104;-2.094;2023-06-10T04:07:22;100997.38;;;10.38;100.00
27334;BME280;14817;57.104;-2.094;2023-06-10T04:09:50;101003.31;;;10.42;100.00
27334;BME280;14817;57.104;-2.094;2023-06-10T04:12:17;101007.41;;;10.46;100.00
27334;BME280;14817;57.104;-2.094;2023-06-10T04:14:44;101001.91;;;10.48;100.00
27334;BME280;14817;57.104;-2.094;2023-06-10T04:17:11;101004.16;;;10.42;100.00
27334;BME280;14817;57.104;-2.094;2023-06-10T04:19:38;101002.19;;;10.54;100.00
27334;BME280;14817;57.104;-2.094;2023-06-10T04:22:06;100994.88;;;10.56;100.00
27334;BME280;14817;57.104;-2.094;2023-06-10T04:24:33;100996.00;;;10.63;100.00
27334;BME280;14817;57.104;-2.094;2023-06-10T04:27:00;100992.03;;;10.58;100.00
27334;BME280;14817;57.104;-2.094;2023-06-10T04:29:27;100999.09;;;10.59;100.00
27334;BME280;14817;57.104;-2.094;2023-06-10T04:31:54;100993.44;;;10.72;100.00
27334;BME280;14817;57.104;-2.094;2023-06-10T04:34:21;100994.31;;;10.82;100.00
27334;BME280;14817;57.104;-2.094;2023-06-10T04:36:48;100995.97;;;10.83;100.00
27334;BME280;14817;57.104;-2.094;2023-06-10T04:39:16;100990.34;;;10.67;100.00
27334;BME280;14817;57.104;-2.094;2023-06-10T04:41:44;101002.19;;;10.74;100.00
27334;BME280;14817;57.104;-2.094;2023-06-10T04:44:12;100998.94;;;10.70;100.00
27334;BME280;14817;57.104;-2.094;2023-06-10T04:46:41;101000.63;;;10.81;100.00
27334;BME280;14817;57.104;-2.094;2023-06-10T04:49:09;100999.66;;;10.72;100.00
27334;BME280;14817;57.104;-2.094;2023-06-10T04:51:35;101001.47;;;10.62;100.00
27334;BME280;14817;57.104;-2.094;2023-06-10T04:54:02;100998.81;;;10.62;100.00
27334;BME280;14817;57.104;-2.094;2023-06-10T04:56:31;100997.97;;;10.71;100.00
27334;BME280;14817;57.104;-2.094;2023-06-10T04:58:57;100997.38;;;10.77;100.00
27334;BME280;14817;57.104;-2.094;2023-06-10T05:01:24;101007.97;;;10.79;100.00
27334;BME280;14817;57.104;-2.094;2023-06-10T05:03:51;100999.22;;;10.87;100.00
27334;BME280;14817;57.104;-2.094;2023-06-10T05:06:18;100991.19;;;10.87;100.00
27334;BME280;14817;57.104;-2.094;2023-06-10T05:08:45;100993.00;;;10.96;100.00
27334;BME280;14817;57.104;-2.094;2023-06-10T05:11:12;100996.25;;;10.90;100.00
27334;BME280;14817;57.104;-2.094;2023-06-10T05:13:41;100989.19;;;10.98;100.00
27334;BME280;14817;57.104;-2.094;2023-06-10T05:16:09;100998.22;;;10.97;100.00
27334;BME280;14817;57.104;-2.094;2023-06-10T05:18:36;100987.75;;;11.14;100.00
27334;BME280;14817;57.104;-2.094;2023-06-10T05:21:03;100985.03;;;11.23;100.00
27334;BME280;14817;57.104;-2.094;2023-06-10T05:23:30;100989.00;;;11.19;100.00
27334;BME280;14817;57.104;-2.094;2023-06-10T05:25:57;100985.19;;;11.22;100.00
27334;BME280;14817;57.104;-2.094;2023-06-10T05:28:25;100979.09;;;11.39;100.00
27334;BME280;14817;57.104;-2.094;2023-06-10T05:30:52;100983.13;;;11.53;100.00
27334;BME280;14817;57.104;-2.094;2023-06-10T05:33:19;100983.69;;;11.57;100.00
27334;BME280;14817;57.104;-2.094;2023-06-10T05:35:46;100979.16;;;11.57;100.00
27334;BME280;14817;57.104;-2.094;2023-06-10T05:38:12;100984.19;;;11.60;100.00
27334;BME280;14817;57.104;-2.094;2023-06-10T05:40:39;100987.78;;;11.51;100.00
27334;BME280;14817;57.104;-2.094;2023-06-10T05:43:06;100986.63;;;11.54;100.00
27334;BME280;14817;57.104;-2.094;2023-06-10T05:45:33;100997.22;;;11.55;100.00
27334;BME280;14817;57.104;-2.094;2023-06-10T05:48:00;100986.19;;;11.58;100.00
27334;BME280;14817;57.104;-2.094;2023-06-10T05:50:27;100989.69;;;11.69;100.00
27334;BME280;14817;57.104;-2.094;2023-06-10T05:52:54;100986.00;;;11.70;100.00
27334;BME280;14817;57.104;-2.094;2023-06-10T05:55:21;100978.56;;;11.63;100.00
27334;BME280;14817;57.104;-2.094;2023-06-10T05:57:58;100989.72;;;11.96;100.00
27334;BME280;14817;57.104;-2.094;2023-06-10T06:00:25;100985.84;;;12.26;100.00
27334;BME280;14817;57.104;-2.094;2023-06-10T06:02:52;100975.97;;;12.27;100.00
27334;BME280;14817;57.104;-2.094;2023-06-10T06:05:21;100987.16;;;12.40;100.00
27334;BME280;14817;57.104;-2.094;2023-06-10T06:07:48;100987.34;;;12.57;100.00
27334;BME280;14817;57.104;-2.094;2023-06-10T06:10:17;100990.72;;;12.59;100.00
27334;BME280;14817;57.104;-2.094;2023-06-10T06:12:44;100977.78;;;12.62;100.00
27334;BME280;14817;57.104;-2.094;2023-06-10T06:15:11;100979.53;;;12.90;100.00
27334;BME280;14817;57.104;-2.094;2023-06-10T06:17:38;100978.09;;;13.47;100.00
27334;BME280;14817;57.104;-2.094;2023-06-10T06:20:05;100986.22;;;13.56;100.00
27334;BME280;14817;57.104;-2.094;2023-06-10T06:22:32;100978.88;;;13.14;100.00
27334;BME280;14817;57.104;-2.094;2023-06-10T06:24:59;100974.16;;;13.34;100.00
27334;BME280;14817;57.104;-2.094;2023-06-10T06:27:27;100968.38;;;13.89;100.00
27334;BME280;14817;57.104;-2.094;2023-06-10T06:29:54;100967.78;;;14.28;100.00
27334;BME280;14817;57.104;-2.094;2023-06-10T06:32:21;100976.19;;;14.33;100.00
27334;BME280;14817;57.104;-2.094;2023-06-10T06:34:49;100972.81;;;14.31;100.00
27334;BME280;14817;57.104;-2.094;2023-06-10T06:37:24;100977.22;;;15.30;100.00
27334;BME280;14817;57.104;-2.094;2023-06-10T06:40:00;100970.50;;;15.02;100.00
27334;BME280;14817;57.104;-2.094;2023-06-10T06:42:30;100970.38;;;16.07;100.00
27334;BME280;14817;57.104;-2.094;2023-06-10T06:45:02;100964.97;;;15.76;100.00
27334;BME280;14817;57.104;-2.094;2023-06-10T06:47:29;100967.59;;;16.15;100.00
27334;BME280;14817;57.104;-2.094;2023-06-10T06:49:56;100967.56;;;16.00;100.00
27334;BME280;14817;57.104;-2.094;2023-06-10T06:52:23;100972.28;;;15.42;100.00
27334;BME280;14817;57.104;-2.094;2023-06-10T06:54:50;100969.72;;;15.49;100.00
27334;BME280;14817;57.104;-2.094;2023-06-10T06:57:16;100970.19;;;16.08;100.00
27334;BME280;14817;57.104;-2.094;2023-06-10T06:59:43;100970.38;;;16.30;100.00
27334;BME280;14817;57.104;-2.094;2023-06-10T07:02:10;100965.72;;;16.47;100.00
27334;BME280;14817;57.104;-2.094;2023-06-10T07:04:37;100966.03;;;16.52;100.00
27334;BME280;14817;57.104;-2.094;2023-06-10T07:07:07;100968.28;;;16.17;100.00
27334;BME280;14817;57.104;-2.094;2023-06-10T07:09:34;100965.69;;;16.01;100.00
27334;BME280;14817;57.104;-2.094;2023-06-10T07:12:01;100963.06;;;16.16;100.00
27334;BME280;14817;57.104;-2.094;2023-06-10T07:14:27;100959.25;;;15.62;100.00
27334;BME280;14817;57.104;-2.094;2023-06-10T07:16:54;100962.63;;;15.64;100.00
27334;BME280;14817;57.104;-2.094;2023-06-10T07:19:21;100967.59;;;15.92;100.00
27334;BME280;14817;57.104;-2.094;2023-06-10T07:21:48;100971.56;;;15.65;100.00
27334;BME280;14817;57.104;-2.094;2023-06-10T07:24:15;100967.75;;;15.90;100.00
27334;BME280;14817;57.104;-2.094;2023-06-10T07:26:42;100958.47;;;15.93;100.00
27334;BME280;14817;57.104;-2.094;2023-06-10T07:29:09;100969.53;;;16.06;100.00
27334;BME280;14817;57.104;-2.094;2023-06-10T07:31:36;100961.50;;;16.21;100.00
27334;BME280;14817;57.104;-2.094;2023-06-10T07:34:03;100957.28;;;16.19;100.00
27334;BME280;14817;57.104;-2.094;2023-06-10T07:36:30;100958.16;;;16.88;100.00
27334;BME280;14817;57.104;-2.094;2023-06-10T07:38:57;100955.88;;;17.45;100.00
27334;BME280;14817;57.104;-2.094;2023-06-10T07:41:24;100963.56;;;16.88;100.00
27334;BME280;14817;57.104;-2.094;2023-06-10T07:43:54;100949.63;;;17.59;100.00
27334;BME280;14817;57.104;-2.094;2023-06-10T07:46:22;100957.91;;;17.87;100.00
27334;BME280;14817;57.104;-2.094;2023-06-10T07:48:49;100955.16;;;18.39;100.00
27334;BME280;14817;57.104;-2.094;2023-06-10T07:51:16;100953.53;;;18.66;100.00
27334;BME280;14817;57.104;-2.094;2023-06-10T07:53:43;100945.13;;;18.39;100.00
27334;BME280;14817;57.104;-2.094;2023-06-10T07:56:11;100952.94;;;18.70;100.00
27334;BME280;14817;57.104;-2.094;2023-06-10T07:58:38;100946.94;;;18.96;100.00
27334;BME280;14817;57.104;-2.094;2023-06-10T08:01:05;100951.47;;;18.89;100.00
27334;BME280;14817;57.104;-2.094;2023-06-10T08:03:32;100949.66;;;18.75;100.00
27334;BME280;14817;57.104;-2.094;2023-06-10T08:05:59;100942.69;;;18.87;100.00
27334;BME280;14817;57.104;-2.094;2023-06-10T08:08:26;100939.06;;;19.02;100.00
27334;BME280;14817;57.104;-2.094;2023-06-10T08:10:53;100941.50;;;18.96;100.00
27334;BME280;14817;57.104;-2.094;2023-06-10T08:13:20;100937.41;;;19.07;100.00
27334;BME280;14817;57.104;-2.094;2023-06-10T08:15:47;100950.44;;;18.69;100.00
27334;BME280;14817;57.104;-2.094;2023-06-10T08:18:17;100951.03;;;19.14;100.00
27334;BME280;14817;57.104;-2.094;2023-06-10T08:20:44;100959.28;;;19.27;100.00
27334;BME280;14817;57.104;-2.094;2023-06-10T08:23:10;100950.31;;;19.68;100.00
27334;BME280;14817;57.104;-2.094;2023-06-10T08:25:37;100956.50;;;19.55;100.00
27334;BME280;14817;57.104;-2.094;2023-06-10T08:28:04;100959.66;;;19.24;100.00
27334;BME280;14817;57.104;-2.094;2023-06-10T08:30:31;100962.00;;;19.27;100.00
27334;BME280;14817;57.104;-2.094;2023-06-10T08:32:59;100950.44;;;19.18;100.00
27334;BME280;14817;57.104;-2.094;2023-06-10T08:35:26;100958.47;;;19.33;100.00
27334;BME280;14817;57.104;-2.094;2023-06-10T08:37:53;100958.78;;;18.67;100.00
27334;BME280;14817;57.104;-2.094;2023-06-10T08:40:20;100947.13;;;19.65;100.00
27334;BME280;14817;57.104;-2.094;2023-06-10T08:43:05;100955.59;;;19.42;100.00
27334;BME280;14817;57.104;-2.094;2023-06-10T08:45:35;100946.66;;;19.89;100.00
27334;BME280;14817;57.104;-2.094;2023-06-10T08:48:05;100949.69;;;19.31;100.00
27334;BME280;14817;57.104;-2.094;2023-06-10T08:50:38;100949.31;;;19.41;100.00
27334;BME280;14817;57.104;-2.094;2023-06-10T08:53:06;100952.28;;;19.46;100.00
27334;BME280;14817;57.104;-2.094;2023-06-10T08:55:36;100951.53;;;18.96;100.00
27334;BME280;14817;57.104;-2.094;2023-06-10T08:58:04;100947.63;;;19.33;100.00
27334;BME280;14817;57.104;-2.094;2023-06-10T09:00:31;100958.16;;;19.56;100.00
27334;BME280;14817;57.104;-2.094;2023-06-10T09:02:59;100956.00;;;19.38;100.00
27334;BME280;14817;57.104;-2.094;2023-06-10T09:05:33;100954.63;;;19.21;100.00
27334;BME280;14817;57.104;-2.094;2023-06-10T09:08:02;100954.91;;;19.33;100.00
27334;BME280;14817;57.104;-2.094;2023-06-10T09:10:29;100957.50;;;19.48;100.00
27334;BME280;14817;57.104;-2.094;2023-06-10T09:12:56;100957.72;;;18.90;100.00
27334;BME280;14817;57.104;-2.094;2023-06-10T09:15:23;100948.66;;;19.04;100.00
27334;BME280;14817;57.104;-2.094;2023-06-10T09:17:50;100943.50;;;19.86;100.00
27334;BME280;14817;57.104;-2.094;2023-06-10T09:20:18;100953.75;;;19.90;100.00
27334;BME280;14817;57.104;-2.094;2023-06-10T09:22:45;100965.72;;;19.26;100.00
27334;BME280;14817;57.104;-2.094;2023-06-10T09:25:13;100965.22;;;18.88;100.00
27334;BME280;14817;57.104;-2.094;2023-06-10T09:27:50;100962.38;;;19.59;100.00
27334;BME280;14817;57.104;-2.094;2023-06-10T09:30:28;100959.16;;;19.42;100.00
27334;BME280;14817;57.104;-2.094;2023-06-10T09:32:57;100953.81;;;19.62;100.00
27334;BME280;14817;57.104;-2.094;2023-06-10T09:35:27;100954.22;;;19.52;100.00
27334;BME280;14817;57.104;-2.094;2023-06-10T09:37:58;100952.28;;;19.18;100.00
27334;BME280;14817;57.104;-2.094;2023-06-10T09:40:26;100948.91;;;19.37;100.00
27334;BME280;14817;57.104;-2.094;2023-06-10T09:42:59;100951.19;;;19.75;100.00
27334;BME280;14817;57.104;-2.094;2023-06-10T09:45:32;100953.78;;;19.55;100.00
27334;BME280;14817;57.104;-2.094;2023-06-10T09:48:00;100957.13;;;19.51;100.00
27334;BME280;14817;57.104;-2.094;2023-06-10T09:50:27;100961.94;;;19.21;100.00
27334;BME280;14817;57.104;-2.094;2023-06-10T09:52:54;100955.59;;;19.42;100.00
27334;BME280;14817;57.104;-2.094;2023-06-10T09:55:21;100953.50;;;19.44;100.00
27334;BME280;14817;57.104;-2.094;2023-06-10T09:57:53;100942.72;;;19.57;100.00
27334;BME280;14817;57.104;-2.094;2023-06-10T10:00:22;100952.25;;;19.40;100.00
27334;BME280;14817;57.104;-2.094;2023-06-10T10:02:53;100951.09;;;19.62;100.00
27334;BME280;14817;57.104;-2.094;2023-06-10T10:05:21;100953.50;;;19.44;100.00
27334;BME280;14817;57.104;-2.094;2023-06-10T10:07:49;100960.13;;;19.69;100.00
27334;BME280;14817;57.104;-2.094;2023-06-10T10:10:18;100946.97;;;20.14;100.00
27334;BME280;14817;57.104;-2.094;2023-06-10T10:12:47;100952.94;;;19.96;100.00
27334;BME280;14817;57.104;-2.094;2023-06-10T10:15:16;100954.97;;;19.74;100.00
27334;BME280;14817;57.104;-2.094;2023-06-10T10:18:02;100959.97;;;19.77;100.00
27334;BME280;14817;57.104;-2.094;2023-06-10T10:20:33;100952.56;;;19.23;100.00
27334;BME280;14817;57.104;-2.094;2023-06-10T10:23:03;100960.97;;;19.35;100.00
27334;BME280;14817;57.104;-2.094;2023-06-10T10:25:34;100963.31;;;19.38;100.00
27334;BME280;14817;57.104;-2.094;2023-06-10T10:28:08;100954.16;;;19.81;100.00
27334;BME280;14817;57.104;-2.094;2023-06-10T10:30:57;100958.16;;;19.85;100.00
27334;BME280;14817;57.104;-2.094;2023-06-10T10:33:33;100962.72;;;19.43;100.00
27334;BME280;14817;57.104;-2.094;2023-06-10T10:36:03;100957.09;;;19.44;100.00
27334;BME280;14817;57.104;-2.094;2023-06-10T10:38:31;100955.56;;;19.70;100.00
27334;BME280;14817;57.104;-2.094;2023-06-10T10:40:58;100961.06;;;19.48;100.00
27334;BME280;14817;57.104;-2.094;2023-06-10T10:43:28;100959.69;;;19.66;100.00
27334;BME280;14817;57.104;-2.094;2023-06-10T10:46:03;100957.47;;;19.76;100.00
27334;BME280;14817;57.104;-2.094;2023-06-10T10:48:38;100956.78;;;19.32;100.00
27334;BME280;14817;57.104;-2.094;2023-06-10T10:51:05;100950.88;;;20.05;100.00
27334;BME280;14817;57.104;-2.094;2023-06-10T10:53:32;100955.06;;;20.08;100.00
27334;BME280;14817;57.104;-2.094;2023-06-10T10:58:26;100947.00;;;20.41;100.00
27334;BME280;14817;57.104;-2.094;2023-06-10T11:00:53;100951.34;;;20.22;100.00
27334;BME280;14817;57.104;-2.094;2023-06-10T11:03:21;100954.53;;;20.32;100.00
27334;BME280;14817;57.104;-2.094;2023-06-10T11:05:48;100949.25;;;20.17;100.00
27334;BME280;14817;57.104;-2.094;2023-06-10T11:10:55;100948.88;;;19.72;100.00
27334;BME280;14817;57.104;-2.094;2023-06-10T11:13:22;100956.97;;;19.66;100.00
27334;BME280;14817;57.104;-2.094;2023-06-10T11:15:50;100949.81;;;19.58;100.00
27334;BME280;14817;57.104;-2.094;2023-06-10T11:23:29;100953.34;;;19.17;100.00
27334;BME280;14817;57.104;-2.094;2023-06-10T11:26:09;100950.31;;;19.05;100.00
27334;BME280;14817;57.104;-2.094;2023-06-10T11:31:09;100949.16;;;19.14;100.00
27334;BME280;14817;57.104;-2.094;2023-06-10T11:33:54;100940.72;;;19.03;100.00
27334;BME280;14817;57.104;-2.094;2023-06-10T11:36:21;100939.44;;;18.77;100.00
27334;BME280;14817;57.104;-2.094;2023-06-10T11:38:50;100938.78;;;18.75;100.00
27334;BME280;14817;57.104;-2.094;2023-06-10T11:41:19;100946.06;;;18.46;100.00
27334;BME280;14817;57.104;-2.094;2023-06-10T11:43:47;100942.19;;;18.34;100.00
27334;BME280;14817;57.104;-2.094;2023-06-10T11:46:14;100937.84;;;17.82;100.00
27334;BME280;14817;57.104;-2.094;2023-06-10T11:48:55;100942.81;;;18.79;100.00
27334;BME280;14817;57.104;-2.094;2023-06-10T11:51:25;100933.56;;;18.95;100.00
27334;BME280;14817;57.104;-2.094;2023-06-10T11:53:53;100936.00;;;19.18;100.00
27334;BME280;14817;57.104;-2.094;2023-06-10T11:56:25;100940.84;;;18.94;100.00
27334;BME280;14817;57.104;-2.094;2023-06-10T11:59:02;100942.81;;;18.57;100.00
27334;BME280;14817;57.104;-2.094;2023-06-10T12:01:38;100945.16;;;18.82;100.00
27334;BME280;14817;57.104;-2.094;2023-06-10T12:04:14;100943.59;;;18.51;100.00
27334;BME280;14817;57.104;-2.094;2023-06-10T12:06:46;100946.44;;;18.43;100.00
27334;BME280;14817;57.104;-2.094;2023-06-10T12:11:53;100944.97;;;19.12;100.00
27334;BME280;14817;57.104;-2.094;2023-06-10T12:14:58;100940.94;;;18.80;100.00
27334;BME280;14817;57.104;-2.094;2023-06-10T12:20:47;100935.34;;;18.81;100.00
27334;BME280;14817;57.104;-2.094;2023-06-10T12:22:49;100936.72;;;18.77;100.00
27334;BME280;14817;57.104;-2.094;2023-06-10T12:25:15;100937.81;;;18.54;100.00
27334;BME280;14817;57.104;-2.094;2023-06-10T12:27:53;100943.41;;;18.53;100.00
27334;BME280;14817;57.104;-2.094;2023-06-10T12:30:21;100941.59;;;18.17;100.00
27334;BME280;14817;57.104;-2.094;2023-06-10T12:32:49;100942.50;;;17.88;100.00
27334;BME280;14817;57.104;-2.094;2023-06-10T12:35:26;100947.09;;;17.87;100.00
27334;BME280;14817;57.104;-2.094;2023-06-10T12:37:59;100942.94;;;18.28;100.00
27334;BME280;14817;57.104;-2.094;2023-06-10T12:40:31;100951.72;;;18.30;100.00
27334;BME280;14817;57.104;-2.094;2023-06-10T12:42:59;100946.00;;;18.18;100.00
27334;BME280;14817;57.104;-2.094;2023-06-10T12:48:17;100934.28;;;18.17;100.00
27334;BME280;14817;57.104;-2.094;2023-06-10T12:50:49;100930.50;;;18.33;100.00
27334;BME280;14817;57.104;-2.094;2023-06-10T12:53:16;100939.94;;;18.38;100.00
27334;BME280;14817;57.104;-2.094;2023-06-10T12:55:43;100944.28;;;18.60;100.00
27334;BME280;14817;57.104;-2.094;2023-06-10T12:58:12;100935.81;;;17.84;100.00
27334;BME280;14817;57.104;-2.094;2023-06-10T13:00:39;100933.19;;;18.12;100.00
27334;BME280;14817;57.104;-2.094;2023-06-10T13:03:08;100925.25;;;18.10;100.00